createdAt,value
2022-08-05T00:02:39.824Z,25.93
2022-08-05T00:06:04.960Z,25.97
2022-08-05T00:08:36.790Z,25.85
2022-08-05T00:11:24.019Z,25.69
2022-08-05T00:14:11.949Z,25.69
2022-08-05T00:16:52.743Z,25.63
2022-08-05T00:19:22.655Z,25.70
2022-08-05T00:22:11.075Z,25.62
2022-08-05T00:24:42.188Z,25.67
2022-08-05T00:27:36.235Z,25.55
2022-08-05T00:30:05.589Z,25.39
2022-08-05T00:32:39.338Z,25.40
2022-08-05T00:35:20.331Z,25.38
2022-08-05T00:37:52.561Z,25.33
2022-08-05T00:40:53.308Z,25.40
2022-08-05T00:43:22.704Z,25.22
2022-08-05T00:46:05.704Z,25.13
2022-08-05T00:48:34.227Z,25.20
2022-08-05T00:51:51.965Z,24.98
2022-08-05T00:54:20.280Z,25.04
2022-08-05T00:56:51.699Z,24.93
2022-08-05T00:59:22.041Z,24.82
2022-08-05T01:01:50.067Z,24.90
2022-08-05T01:04:19.892Z,24.53
2022-08-05T01:06:49.096Z,24.79
2022-08-05T01:09:20.487Z,24.58
2022-08-05T01:11:50.464Z,24.48
2022-08-05T01:14:28.718Z,24.76
2022-08-05T01:17:04.666Z,24.71
2022-08-05T01:20:01.204Z,24.37
2022-08-05T01:22:38.688Z,24.36
2022-08-05T01:25:40.530Z,24.52
2022-08-05T01:28:25.454Z,24.50
2022-08-05T01:30:57.977Z,24.51
2022-08-05T01:33:35.195Z,25.01
2022-08-05T01:36:12.920Z,25.10
2022-08-05T01:38:46.162Z,25.03
2022-08-05T01:41:21.716Z,24.49
2022-08-05T01:43:53.594Z,24.35
2022-08-05T01:46:42.487Z,24.24
2022-08-05T01:49:22.932Z,24.21
2022-08-05T01:51:56.808Z,24.46
2022-08-05T01:54:30.374Z,24.23
2022-08-05T01:58:11.255Z,24.13
2022-08-05T01:59:52.539Z,24.34
2022-08-05T02:02:28.460Z,24.76
2022-08-05T02:05:01.766Z,24.77
2022-08-05T02:07:32.114Z,24.63
2022-08-05T02:10:01.994Z,24.34
2022-08-05T02:12:38.215Z,24.31
2022-08-05T02:15:12.981Z,24.37
2022-08-05T02:18:30.820Z,24.22
2022-08-05T02:20:46.985Z,24.10
2022-08-05T02:23:17.144Z,24.12
2022-08-05T02:25:49.563Z,24.06
2022-08-05T02:28:29.348Z,24.01
2022-08-05T02:31:07.488Z,24.02
2022-08-05T02:33:39.314Z,23.85
2022-08-05T02:36:13.550Z,23.73
2022-08-05T02:38:53.174Z,23.74
2022-08-05T02:41:28.986Z,23.63
2022-08-05T02:44:13.778Z,23.68
2022-08-05T02:46:58.804Z,23.56
2022-08-05T02:49:36.559Z,23.54
2022-08-05T02:52:09.128Z,23.52
2022-08-05T02:54:42.171Z,23.48
2022-08-05T02:58:11.265Z,23.45
2022-08-05T03:00:01.332Z,23.21
2022-08-05T03:02:37.817Z,23.46
2022-08-05T03:05:08.169Z,23.24
2022-08-05T03:08:00.979Z,23.32
2022-08-05T03:10:28.835Z,23.25
2022-08-05T03:15:24.331Z,23.15
2022-08-05T03:17:56.170Z,23.17
2022-08-05T03:20:26.321Z,23.02
2022-08-05T03:22:57.195Z,23.07
2022-08-05T03:25:32.657Z,23.28
2022-08-05T03:28:03.695Z,23.24
2022-08-05T03:30:34.135Z,23.35
2022-08-05T03:33:06.028Z,23.37
2022-08-05T03:35:41.122Z,23.33
2022-08-05T03:38:12.368Z,23.30
2022-08-05T03:40:45.300Z,23.36
2022-08-05T03:44:08.434Z,23.38
2022-08-05T03:46:05.192Z,23.39
2022-08-05T03:48:37.798Z,23.24
2022-08-05T03:52:38.146Z,23.23
2022-08-05T03:55:07.137Z,23.25
2022-08-05T03:56:58.784Z,23.09
2022-08-05T03:59:47.080Z,22.95
2022-08-05T04:02:38.666Z,23.05
2022-08-05T04:05:15.853Z,23.20
2022-08-05T04:07:58.161Z,23.23
2022-08-05T04:10:28.179Z,23.06
2022-08-05T04:12:59.238Z,23.04
2022-08-05T04:15:32.806Z,23.13
2022-08-05T04:18:02.986Z,23.14
2022-08-05T04:20:32.221Z,23.31
2022-08-05T04:23:01.618Z,23.33
2022-08-05T04:25:56.789Z,23.33
2022-08-05T04:28:17.546Z,23.21
2022-08-05T04:30:45.737Z,23.23
2022-08-05T04:33:13.643Z,23.28
2022-08-05T04:36:16.457Z,23.40
2022-08-05T04:38:39.724Z,23.38
2022-08-05T04:41:09.589Z,23.30
2022-08-05T04:43:40.579Z,23.62
2022-08-05T04:46:28.423Z,23.59
2022-08-05T04:48:58.715Z,23.37
2022-08-05T04:51:30.589Z,23.37
2022-08-05T04:53:58.650Z,23.65
2022-08-05T04:56:34.929Z,23.89
2022-08-05T04:59:21.854Z,23.69
2022-08-05T05:02:35.593Z,23.60
2022-08-05T05:04:47.581Z,23.52
2022-08-05T05:07:18.146Z,23.72
2022-08-05T05:09:46.665Z,23.42
2022-08-05T05:12:14.960Z,23.62
2022-08-05T05:14:50.650Z,23.64
2022-08-05T05:17:23.701Z,23.70
2022-08-05T05:19:56.422Z,23.63
2022-08-05T05:22:26.986Z,23.70
2022-08-05T05:24:58.389Z,23.82
2022-08-05T05:27:45.797Z,23.89
2022-08-05T05:30:30.780Z,23.96
2022-08-05T05:33:08.988Z,23.86
2022-08-05T05:35:45.107Z,23.89
2022-08-05T05:38:14.681Z,23.76
2022-08-05T05:40:51.578Z,24.03
2022-08-05T05:43:27.471Z,24.22
2022-08-05T05:46:15.677Z,24.23
2022-08-05T05:48:46.047Z,24.17
2022-08-05T05:51:49.675Z,24.12
2022-08-05T05:54:20.083Z,24.09
2022-08-05T05:56:48.505Z,24.01
2022-08-05T05:59:18.196Z,23.94
2022-08-05T06:01:57.618Z,24.09
2022-08-05T06:04:28.440Z,24.24
2022-08-05T06:06:56.906Z,24.17
2022-08-05T06:09:59.935Z,24.24
2022-08-05T06:12:20.618Z,24.26
2022-08-05T06:14:48.463Z,24.36
2022-08-05T06:17:24.671Z,24.49
2022-08-05T06:19:59.867Z,24.58
2022-08-05T06:22:30.029Z,24.60
2022-08-05T06:24:59.912Z,24.69
2022-08-05T06:28:10.545Z,24.66
2022-08-05T06:30:20.228Z,24.63
2022-08-05T06:32:50.700Z,24.58
2022-08-05T06:36:03.790Z,24.58
2022-08-05T06:38:11.270Z,24.56
2022-08-05T06:40:46.160Z,24.43
2022-08-05T06:43:57.903Z,24.38
2022-08-05T06:46:07.183Z,24.47
2022-08-05T06:48:55.618Z,24.63
2022-08-05T06:51:30.767Z,24.80
2022-08-05T06:54:02.086Z,24.87
2022-08-05T06:56:34.629Z,24.92
2022-08-05T06:59:03.168Z,24.98
2022-08-05T07:01:33.619Z,25.09
2022-08-05T07:04:03.144Z,25.06
2022-08-05T07:06:32.194Z,25.13
2022-08-05T07:09:03.773Z,25.12
2022-08-05T07:11:36.790Z,25.26
2022-08-05T07:14:29.455Z,25.14
2022-08-05T07:17:58.676Z,25.17
2022-08-05T07:22:39.241Z,25.19
2022-08-05T07:25:23.028Z,25.31
2022-08-05T07:28:03.939Z,25.29
2022-08-05T07:30:38.355Z,25.26
2022-08-05T07:33:15.484Z,25.31
2022-08-05T07:36:04.061Z,25.38
2022-08-05T07:38:42.602Z,25.37
2022-08-05T07:42:13.898Z,25.51
2022-08-05T07:44:18.583Z,25.56
2022-08-05T07:46:48.545Z,25.59
2022-08-05T07:49:18.257Z,25.58
2022-08-05T07:51:53.817Z,25.61
2022-08-05T07:54:31.111Z,25.59
2022-08-05T07:57:41.711Z,25.54
2022-08-05T07:59:51.781Z,25.39
2022-08-05T08:02:26.617Z,25.41
2022-08-05T08:04:59.153Z,25.36
2022-08-05T08:07:28.490Z,25.21
2022-08-05T08:09:56.967Z,25.09
2022-08-05T08:12:33.376Z,25.28
2022-08-05T08:15:09.703Z,25.06
2022-08-05T08:17:46.187Z,25.03
2022-08-05T08:20:44.605Z,25.13
2022-08-05T08:23:11.708Z,25.11
2022-08-05T08:25:59.774Z,25.19
2022-08-05T08:28:35.746Z,25.10
2022-08-05T08:31:07.373Z,25.27
2022-08-05T08:33:38.349Z,25.39
2022-08-05T08:38:57.672Z,25.25
2022-08-05T08:41:51.764Z,25.26
2022-08-05T08:45:22.360Z,25.25
2022-08-05T08:47:47.472Z,25.14
2022-08-05T08:50:22.993Z,25.25
2022-08-05T08:52:52.972Z,25.19
2022-08-05T08:56:02.541Z,25.13
2022-08-05T08:58:16.019Z,24.79
2022-08-05T09:00:44.514Z,24.93
2022-08-05T09:03:19.212Z,24.91
2022-08-05T09:06:08.935Z,24.76
2022-08-05T09:08:40.644Z,25.06
2022-08-05T09:11:12.051Z,24.86
2022-08-05T09:14:09.345Z,24.73
2022-08-05T09:16:31.276Z,24.51
2022-08-05T09:19:00.493Z,24.74
2022-08-05T09:22:21.746Z,24.69
2022-08-05T09:24:17.809Z,24.54
2022-08-05T09:26:51.881Z,24.70
2022-08-05T09:29:47.513Z,24.75
2022-08-05T09:32:40.772Z,24.21
2022-08-05T09:35:11.982Z,24.51
2022-08-05T09:38:12.958Z,24.74
2022-08-05T09:40:53.587Z,24.71
2022-08-05T09:43:40.588Z,24.85
2022-08-05T09:46:27.587Z,24.89
2022-08-05T09:49:08.291Z,24.82
2022-08-05T09:51:49.670Z,24.60
2022-08-05T09:54:28.893Z,24.67
2022-08-05T09:57:01.314Z,24.62
2022-08-05T09:59:35.199Z,24.27
2022-08-05T10:02:05.949Z,24.19
2022-08-05T10:04:38.612Z,24.34
2022-08-05T10:07:19.865Z,24.38
2022-08-05T10:10:15.285Z,24.30
2022-08-05T10:12:50.069Z,24.35
2022-08-05T10:15:29.593Z,24.29
2022-08-05T10:18:16.961Z,24.29
2022-08-05T10:20:48.697Z,24.19
2022-08-05T10:23:22.128Z,23.96
2022-08-05T10:26:14.165Z,23.89
2022-08-05T10:28:44.055Z,24.14
2022-08-05T10:32:48.605Z,24.25
2022-08-05T10:34:01.556Z,24.63
2022-08-05T10:36:30.871Z,24.52
2022-08-05T10:39:10.550Z,24.47
2022-08-05T10:41:48.697Z,24.69
2022-08-05T10:44:20.289Z,24.52
2022-08-05T10:46:54.233Z,24.74
2022-08-05T10:49:27.001Z,24.54
2022-08-05T10:52:10.555Z,24.58
2022-08-05T10:55:07.057Z,24.27
2022-08-05T10:57:35.735Z,23.15
2022-08-05T11:00:18.640Z,23.19
2022-08-05T11:03:24.625Z,23.04
2022-08-05T11:06:15.362Z,23.19
2022-08-05T11:09:32.463Z,23.02
2022-08-05T11:12:50.523Z,23.41
2022-08-05T11:16:00.155Z,23.51
2022-08-05T11:18:27.488Z,23.60
2022-08-05T11:20:58.936Z,24.35
2022-08-05T11:24:03.813Z,25.61
2022-08-05T11:26:31.989Z,28.15
2022-08-05T11:29:12.567Z,28.98
2022-08-05T11:31:58.661Z,28.44
2022-08-05T11:34:40.146Z,28.10
2022-08-05T11:38:37.305Z,29.52
2022-08-05T11:41:13.904Z,27.17
2022-08-05T11:44:05.812Z,26.48
2022-08-05T11:46:58.422Z,26.05
2022-08-05T11:49:34.085Z,26.86
2022-08-05T11:52:08.759Z,28.63
2022-08-05T11:54:41.239Z,29.22
2022-08-05T11:57:25.679Z,28.85
2022-08-05T11:59:55.771Z,30.22
2022-08-05T12:02:30.272Z,30.35
2022-08-05T12:05:01.482Z,28.89
2022-08-05T12:08:07.389Z,30.04
2022-08-05T12:10:42.950Z,28.94
2022-08-05T12:13:16.805Z,27.64
2022-08-05T12:15:49.990Z,28.62
2022-08-05T12:18:33.043Z,29.24
2022-08-05T12:21:13.473Z,28.29
2022-08-05T12:23:53.377Z,28.67
2022-08-05T12:26:21.782Z,29.92
2022-08-05T12:28:52.033Z,31.33
2022-08-05T12:31:28.039Z,31.81
2022-08-05T12:34:02.038Z,31.52
2022-08-05T12:36:33.466Z,29.94
2022-08-05T12:39:01.900Z,29.69
2022-08-05T12:41:35.487Z,29.94
2022-08-05T12:44:14.512Z,29.25
2022-08-05T12:46:57.511Z,29.32
2022-08-05T12:49:27.628Z,29.73
2022-08-05T12:52:25.233Z,29.99
2022-08-05T12:54:57.636Z,29.80
2022-08-05T12:57:27.165Z,29.38
2022-08-05T13:02:04.061Z,29.51
2022-08-05T13:03:18.541Z,28.94
2022-08-05T13:05:48.304Z,29.10
2022-08-05T13:11:04.127Z,28.37
2022-08-05T13:14:05.790Z,28.10
2022-08-05T13:16:25.281Z,28.38
2022-08-05T13:18:58.873Z,28.09
2022-08-05T13:21:27.717Z,28.33
2022-08-05T13:23:58.659Z,28.83
2022-08-05T13:26:30.051Z,28.94
2022-08-05T13:28:59.185Z,30.21
2022-08-05T13:32:03.079Z,30.20
2022-08-05T13:34:25.161Z,29.55
2022-08-05T13:36:54.406Z,29.24
2022-08-05T13:40:12.828Z,29.21
2022-08-05T13:42:14.808Z,29.31
2022-08-05T13:44:45.717Z,29.27
2022-08-05T13:47:35.960Z,29.25
2022-08-05T13:50:04.125Z,29.17
2022-08-05T13:52:35.359Z,28.64
2022-08-05T13:55:07.502Z,28.45
2022-08-05T13:57:50.921Z,28.05
2022-08-05T14:00:27.532Z,28.05
2022-08-05T14:02:57.066Z,28.14
2022-08-05T14:05:48.287Z,28.14
2022-08-05T14:08:20.980Z,27.92
2022-08-05T14:10:59.745Z,27.76
2022-08-05T14:13:48.265Z,27.89
2022-08-05T14:16:16.999Z,27.77
2022-08-05T14:18:45.315Z,27.80
2022-08-05T14:22:07.913Z,27.78
2022-08-05T14:24:01.458Z,27.81
2022-08-05T14:26:38.368Z,27.91
2022-08-05T14:29:15.909Z,27.95
2022-08-05T14:32:03.703Z,28.21
2022-08-05T14:34:35.190Z,28.06
2022-08-05T14:37:04.336Z,27.98
2022-08-05T14:39:50.111Z,27.56
2022-08-05T14:42:22.275Z,27.63
2022-08-05T14:44:50.270Z,27.61
2022-08-05T14:47:23.984Z,27.67
2022-08-05T14:50:18.267Z,27.63
2022-08-05T14:52:58.716Z,27.61
2022-08-05T14:55:38.654Z,27.66
2022-08-05T14:58:11.358Z,27.46
2022-08-05T15:00:59.334Z,27.24
2022-08-05T15:03:33.958Z,27.32
2022-08-05T15:06:15.258Z,27.10
2022-08-05T15:09:01.088Z,27.05
2022-08-05T15:11:51.731Z,26.84
2022-08-05T15:14:35.017Z,26.77
2022-08-05T15:17:45.058Z,26.78
2022-08-05T15:19:58.478Z,26.59
2022-08-05T15:22:26.809Z,26.49
2022-08-05T15:24:55.699Z,26.48
2022-08-05T15:27:25.682Z,26.43
2022-08-05T15:29:56.786Z,26.34
2022-08-05T15:32:27.449Z,26.23
2022-08-05T15:34:57.027Z,25.96
2022-08-05T15:38:34.668Z,25.93
2022-08-05T15:40:59.540Z,25.89
2022-08-05T15:43:11.006Z,25.75
2022-08-05T15:45:45.966Z,25.73
2022-08-05T15:48:15.000Z,25.63
2022-08-05T15:50:45.622Z,25.59
2022-08-05T15:53:13.746Z,25.56
2022-08-05T15:56:03.110Z,25.42
2022-08-05T15:58:29.755Z,25.54
2022-08-05T16:01:16.086Z,25.47
2022-08-05T16:03:48.165Z,25.38
2022-08-05T16:06:19.948Z,25.27
2022-08-05T16:08:51.154Z,25.06
2022-08-05T16:11:40.023Z,24.93
2022-08-05T16:14:10.132Z,24.72
2022-08-05T16:16:47.607Z,24.55
2022-08-05T16:19:25.498Z,24.65
2022-08-05T16:22:04.300Z,24.51
2022-08-05T16:24:41.205Z,24.35
2022-08-05T16:27:16.359Z,24.48
2022-08-05T16:29:50.816Z,24.42
2022-08-05T16:32:23.305Z,24.51
2022-08-05T16:34:58.712Z,24.45
2022-08-05T16:38:16.264Z,24.28
2022-08-05T16:40:26.758Z,24.21
2022-08-05T16:42:57.531Z,24.12
2022-08-05T16:46:05.964Z,24.04
2022-08-05T16:48:25.927Z,23.99
2022-08-05T16:51:01.611Z,23.97
2022-08-05T16:53:32.044Z,23.97
2022-08-05T16:56:01.228Z,23.91
2022-08-05T16:58:30.189Z,23.79
2022-08-05T17:00:58.119Z,23.69
2022-08-05T17:03:28.586Z,23.79
2022-08-05T17:06:00.262Z,23.83
2022-08-05T17:08:36.748Z,23.92
2022-08-05T17:11:17.289Z,23.72
2022-08-05T17:13:45.653Z,23.49
2022-08-05T17:16:33.509Z,23.19
2022-08-05T17:19:03.637Z,23.03
2022-08-05T17:21:37.094Z,22.89
2022-08-05T17:24:18.385Z,22.80
2022-08-05T17:26:55.565Z,22.57
2022-08-05T17:29:33.646Z,22.31
2022-08-05T17:32:16.737Z,21.96
2022-08-05T17:34:48.359Z,22.02
2022-08-05T17:37:40.443Z,21.99
2022-08-05T17:40:12.440Z,21.50
2022-08-05T17:42:46.470Z,21.39
2022-08-05T17:45:22.433Z,21.26
2022-08-05T17:47:55.017Z,21.24
2022-08-05T17:50:28.910Z,21.12
2022-08-05T17:53:02.525Z,21.10
2022-08-05T17:55:37.686Z,21.03
2022-08-05T17:58:11.146Z,20.63
2022-08-05T18:00:45.425Z,20.43
2022-08-05T18:03:55.973Z,20.35
2022-08-05T18:06:11.172Z,19.93
2022-08-05T18:08:44.510Z,20.01
2022-08-05T18:11:23.831Z,19.97
2022-08-05T18:13:54.803Z,19.75
2022-08-05T18:16:23.379Z,19.95
2022-08-05T18:18:51.818Z,19.93
2022-08-05T18:21:26.121Z,19.71
2022-08-05T18:23:55.980Z,19.60
2022-08-05T18:26:29.544Z,19.64
2022-08-05T18:29:00.482Z,19.56
2022-08-05T18:31:33.841Z,19.70
2022-08-05T18:34:06.162Z,19.57
2022-08-05T18:36:36.609Z,19.41
2022-08-05T18:39:09.759Z,19.42
2022-08-05T18:42:01.209Z,19.29
2022-08-05T18:44:35.493Z,19.20
2022-08-05T18:47:22.746Z,19.37
2022-08-05T18:50:12.214Z,19.38
2022-08-05T18:52:50.813Z,19.37
2022-08-05T18:55:21.664Z,19.41
2022-08-05T18:57:52.984Z,19.18
2022-08-05T19:00:26.993Z,19.29
2022-08-05T19:02:57.117Z,19.32
2022-08-05T19:06:12.020Z,19.25
2022-08-05T19:08:15.760Z,19.36
2022-08-05T19:10:48.407Z,19.41
2022-08-05T19:13:16.569Z,19.41
2022-08-05T19:15:58.828Z,19.41
2022-08-05T19:18:28.610Z,19.33
2022-08-05T19:21:00.144Z,19.22
2022-08-05T19:24:07.991Z,19.16
2022-08-05T19:26:19.626Z,19.11
2022-08-05T19:28:47.461Z,18.87
2022-08-05T19:31:18.058Z,18.98
2022-08-05T19:33:48.446Z,18.95
2022-08-05T19:36:25.230Z,18.93
2022-08-05T19:38:59.094Z,18.86
2022-08-05T19:42:05.621Z,18.93
2022-08-05T19:44:17.403Z,19.08
2022-08-05T19:46:46.710Z,19.19
2022-08-05T19:49:16.916Z,19.28
2022-08-05T19:52:05.364Z,19.21
2022-08-05T19:54:36.984Z,19.26
2022-08-05T19:57:09.569Z,19.23
2022-08-05T19:59:55.177Z,19.17
2022-08-05T20:02:28.137Z,19.12
2022-08-05T20:04:58.338Z,19.06
2022-08-05T20:07:48.358Z,19.15
2022-08-05T20:10:19.376Z,19.13
2022-08-05T20:12:50.396Z,19.14
2022-08-05T20:15:48.927Z,19.13
2022-08-05T20:18:10.017Z,19.10
2022-08-05T20:20:56.901Z,18.80
2022-08-05T20:23:39.960Z,18.75
2022-08-05T20:26:17.253Z,18.80
2022-08-05T20:28:47.904Z,18.79
2022-08-05T20:31:16.557Z,18.68
2022-08-05T20:33:45.337Z,18.63
2022-08-05T20:36:14.255Z,18.61
2022-08-05T20:38:54.114Z,18.74
2022-08-05T20:41:43.296Z,18.90
2022-08-05T20:44:18.371Z,18.72
2022-08-05T20:46:57.821Z,18.68
2022-08-05T20:49:26.333Z,18.62
2022-08-05T20:51:55.119Z,18.68
2022-08-05T20:54:22.976Z,18.54
2022-08-05T20:56:54.185Z,18.52
2022-08-05T20:59:26.673Z,18.59
2022-08-05T21:02:10.205Z,18.53
2022-08-05T21:04:39.048Z,18.37
2022-08-05T21:07:08.503Z,18.27
2022-08-05T21:09:37.201Z,18.42
2022-08-05T21:12:20.045Z,18.58
2022-08-05T21:14:48.263Z,18.44
2022-08-05T21:17:18.043Z,18.52
2022-08-05T21:19:50.581Z,18.53
2022-08-05T21:22:21.927Z,18.66
2022-08-05T21:24:52.528Z,18.68
2022-08-05T21:27:24.724Z,18.37
2022-08-05T21:29:55.820Z,18.26
2022-08-05T21:32:24.613Z,18.35
2022-08-05T21:34:55.980Z,18.41
2022-08-05T21:37:41.029Z,18.42
2022-08-05T21:40:13.832Z,18.33
2022-08-05T21:42:44.667Z,18.28
2022-08-05T21:45:24.085Z,18.16
2022-08-05T21:47:56.699Z,18.21
2022-08-05T21:50:25.909Z,18.21
2022-08-05T21:52:58.839Z,18.09
2022-08-05T21:55:42.994Z,18.04
2022-08-05T21:58:16.329Z,18.13
2022-08-05T22:00:51.335Z,18.24
2022-08-05T22:03:20.589Z,18.21
2022-08-05T22:06:09.564Z,18.19
2022-08-05T22:08:37.384Z,17.98
2022-08-05T22:11:11.922Z,17.99
2022-08-05T22:14:19.621Z,17.96
2022-08-05T22:16:42.064Z,18.10
2022-08-05T22:20:03.522Z,18.07
2022-08-05T22:22:07.514Z,18.07
2022-08-05T22:24:55.758Z,18.05
2022-08-05T22:28:04.920Z,17.92
2022-08-05T22:30:32.178Z,17.90
2022-08-05T22:33:03.574Z,17.79
2022-08-05T22:35:48.143Z,17.72
2022-08-05T22:38:19.679Z,17.86
2022-08-05T22:40:50.023Z,17.86
2022-08-05T22:43:36.194Z,17.79
2022-08-05T22:46:13.380Z,17.81
2022-08-05T22:48:43.162Z,17.70
2022-08-05T22:51:20.305Z,17.70
2022-08-05T22:53:51.996Z,17.71
2022-08-05T22:56:30.581Z,17.60
2022-08-05T22:59:00.111Z,17.59
2022-08-05T23:01:50.954Z,17.58
2022-08-05T23:04:21.686Z,17.48
2022-08-05T23:06:49.617Z,17.49
2022-08-05T23:09:27.425Z,17.38
2022-08-05T23:12:08.898Z,17.31
2022-08-05T23:14:36.750Z,17.32
2022-08-05T23:17:34.315Z,17.22
2022-08-05T23:20:16.635Z,17.11
2022-08-05T23:22:48.373Z,17.05
2022-08-05T23:25:51.589Z,17.01
2022-08-05T23:28:11.094Z,16.94
2022-08-05T23:30:43.902Z,16.96
2022-08-05T23:34:02.655Z,16.86
2022-08-05T23:36:15.654Z,16.85
2022-08-05T23:38:45.660Z,16.83
2022-08-05T23:41:14.247Z,16.77
2022-08-05T23:44:06.017Z,16.69
2022-08-05T23:46:30.367Z,16.67
2022-08-05T23:49:16.217Z,16.59
2022-08-05T23:52:03.477Z,16.59
2022-08-05T23:54:38.132Z,16.49
2022-08-05T23:57:08.115Z,16.49
